createdAt,value
2023-01-29T00:00:54.807Z,22.15
2023-01-29T00:01:54.900Z,22.15
2023-01-29T00:02:54.887Z,22.16
2023-01-29T00:03:54.919Z,22.18
2023-01-29T00:04:58.910Z,22.16
2023-01-29T00:05:54.865Z,22.17
2023-01-29T00:06:54.836Z,22.14
2023-01-29T00:07:54.808Z,22.16
2023-01-29T00:08:54.813Z,22.16
2023-01-29T00:09:54.760Z,22.17
2023-01-29T00:10:54.720Z,22.16
2023-01-29T00:11:54.667Z,22.17
2023-01-29T00:12:54.652Z,22.18
2023-01-29T00:13:54.611Z,22.18
2023-01-29T00:14:54.577Z,22.17
2023-01-29T00:15:54.545Z,22.20
2023-01-29T00:16:54.582Z,22.17
2023-01-29T00:17:54.501Z,22.18
2023-01-29T00:18:54.452Z,22.17
2023-01-29T00:19:54.406Z,22.18
2023-01-29T00:20:54.424Z,22.18
2023-01-29T00:21:54.350Z,22.19
2023-01-29T00:22:54.322Z,22.19
2023-01-29T00:23:54.290Z,22.19
2023-01-29T00:24:54.237Z,22.22
2023-01-29T00:25:54.238Z,22.21
2023-01-29T00:26:54.190Z,22.20
2023-01-29T00:27:54.138Z,22.22
2023-01-29T00:28:54.121Z,22.19
2023-01-29T00:29:54.071Z,22.19
2023-01-29T00:30:54.125Z,22.20
2023-01-29T00:31:54.075Z,22.21
2023-01-29T00:32:53.940Z,22.22
2023-01-29T00:33:53.911Z,22.22
2023-01-29T00:34:53.876Z,22.22
2023-01-29T00:35:53.815Z,22.21
2023-01-29T00:36:53.786Z,22.22
2023-01-29T00:37:53.741Z,22.22
2023-01-29T00:38:53.696Z,22.23
2023-01-29T00:39:53.680Z,22.22
2023-01-29T00:40:53.621Z,22.24
2023-01-29T00:41:53.598Z,22.23
2023-01-29T00:42:53.550Z,22.25
2023-01-29T00:43:53.502Z,22.25
2023-01-29T00:44:53.483Z,22.24
2023-01-29T00:45:53.415Z,22.23
2023-01-29T00:46:53.531Z,22.24
2023-01-29T00:47:53.348Z,22.23
2023-01-29T00:48:53.290Z,22.25
2023-01-29T00:49:53.249Z,22.24
2023-01-29T00:50:53.216Z,22.23
2023-01-29T00:51:53.161Z,22.24
2023-01-29T00:52:53.126Z,22.25
2023-01-29T00:53:53.091Z,22.26
2023-01-29T00:54:53.077Z,22.24
2023-01-29T00:55:53.006Z,22.23
2023-01-29T00:56:52.980Z,22.27
2023-01-29T00:57:52.935Z,22.24
2023-01-29T00:58:52.882Z,22.24
2023-01-29T00:59:52.824Z,22.24
2023-01-29T01:00:52.794Z,22.25
2023-01-29T01:01:52.796Z,22.25
2023-01-29T01:02:52.719Z,22.26
2023-01-29T01:03:52.658Z,22.25
2023-01-29T01:04:52.633Z,22.27
2023-01-29T01:05:52.600Z,22.25
2023-01-29T01:06:52.557Z,22.27
2023-01-29T01:07:52.532Z,22.26
2023-01-29T01:08:52.557Z,22.26
2023-01-29T01:09:52.447Z,22.28
2023-01-29T01:10:52.424Z,22.28
2023-01-29T01:11:52.387Z,22.28
2023-01-29T01:12:52.337Z,22.28
2023-01-29T01:13:52.297Z,22.26
2023-01-29T01:14:52.268Z,22.27
2023-01-29T01:15:52.229Z,22.27
2023-01-29T01:16:52.224Z,22.28
2023-01-29T01:17:52.196Z,22.29
2023-01-29T01:18:52.156Z,22.29
2023-01-29T01:19:52.147Z,22.27
2023-01-29T01:20:52.099Z,22.31
2023-01-29T01:21:52.018Z,22.30
2023-01-29T01:22:52.015Z,22.30
2023-01-29T01:23:51.933Z,22.28
2023-01-29T01:24:51.900Z,22.29
2023-01-29T01:25:51.863Z,22.30
2023-01-29T01:26:51.855Z,22.30
2023-01-29T01:27:51.807Z,22.31
2023-01-29T01:28:51.758Z,22.33
2023-01-29T01:29:51.729Z,22.32
2023-01-29T01:30:51.699Z,22.33
2023-01-29T01:31:51.736Z,22.34
2023-01-29T01:32:51.605Z,22.31
2023-01-29T01:33:51.566Z,22.31
2023-01-29T01:34:51.536Z,22.31
2023-01-29T01:35:51.506Z,22.32
2023-01-29T01:36:51.438Z,22.32
2023-01-29T01:37:51.424Z,22.31
2023-01-29T01:38:51.377Z,22.31
2023-01-29T01:39:51.337Z,22.32
2023-01-29T01:40:51.306Z,22.33
2023-01-29T01:41:51.306Z,22.31
2023-01-29T01:42:51.236Z,22.32
2023-01-29T01:43:51.195Z,22.35
2023-01-29T01:44:51.157Z,22.34
2023-01-29T01:45:51.136Z,22.35
2023-01-29T01:46:51.091Z,22.35
2023-01-29T01:47:51.056Z,22.35
2023-01-29T01:48:51.023Z,22.34
2023-01-29T01:49:50.944Z,22.35
2023-01-29T01:50:50.928Z,22.35
2023-01-29T01:51:50.907Z,22.35
2023-01-29T01:52:50.829Z,22.35
2023-01-29T01:53:50.797Z,22.34
2023-01-29T01:54:50.735Z,22.34
2023-01-29T01:55:50.701Z,22.35
2023-01-29T01:56:50.666Z,22.35
2023-01-29T01:57:52.215Z,22.36
2023-01-29T01:58:50.662Z,22.36
2023-01-29T01:59:50.559Z,22.34
2023-01-29T02:00:50.526Z,22.35
2023-01-29T02:01:50.518Z,22.35
2023-01-29T02:02:50.443Z,22.36
2023-01-29T02:03:50.384Z,22.37
2023-01-29T02:04:50.352Z,22.37
2023-01-29T02:05:50.323Z,22.35
2023-01-29T02:06:50.262Z,22.36
2023-01-29T02:07:50.762Z,22.37
2023-01-29T02:08:50.213Z,22.38
2023-01-29T02:09:50.145Z,22.35
2023-01-29T02:10:50.121Z,22.40
2023-01-29T02:11:50.071Z,22.40
2023-01-29T02:12:50.025Z,22.37
2023-01-29T02:13:49.997Z,22.40
2023-01-29T02:14:49.960Z,22.40
2023-01-29T02:15:49.940Z,22.41
2023-01-29T02:16:49.907Z,22.38
2023-01-29T02:17:49.900Z,22.41
2023-01-29T02:18:49.830Z,22.41
2023-01-29T02:19:49.763Z,22.40
2023-01-29T02:20:49.734Z,22.41
2023-01-29T02:21:49.702Z,22.40
2023-01-29T02:22:49.665Z,22.41
2023-01-29T02:23:49.674Z,22.40
2023-01-29T02:24:49.596Z,22.42
2023-01-29T02:25:49.585Z,22.41
2023-01-29T02:26:49.536Z,22.40
2023-01-29T02:27:49.485Z,22.40
2023-01-29T02:28:49.471Z,22.39
2023-01-29T02:29:49.478Z,22.41
2023-01-29T02:30:49.421Z,22.40
2023-01-29T02:31:49.386Z,22.42
2023-01-29T02:32:49.303Z,22.41
2023-01-29T02:33:49.274Z,22.43
2023-01-29T02:34:49.277Z,22.39
2023-01-29T02:35:49.217Z,22.41
2023-01-29T02:36:49.180Z,22.42
2023-01-29T02:37:49.129Z,22.41
2023-01-29T02:38:49.144Z,22.41
2023-01-29T02:39:49.075Z,22.43
2023-01-29T02:40:49.027Z,22.45
2023-01-29T02:41:48.986Z,22.43
2023-01-29T02:42:48.957Z,22.44
2023-01-29T02:43:48.918Z,22.45
2023-01-29T02:44:48.907Z,22.46
2023-01-29T02:45:48.909Z,22.44
2023-01-29T02:46:48.825Z,22.46
2023-01-29T02:47:48.796Z,22.45
2023-01-29T02:48:48.725Z,22.44
2023-01-29T02:49:48.693Z,22.37
2023-01-29T02:50:48.699Z,22.15
2023-01-29T02:51:48.640Z,21.97
2023-01-29T02:52:48.615Z,21.85
2023-01-29T02:53:48.576Z,20.94
2023-01-29T02:54:48.577Z,20.67
2023-01-29T02:55:48.489Z,20.78
2023-01-29T02:56:48.463Z,20.84
2023-01-29T02:57:48.428Z,20.37
2023-01-29T02:58:48.392Z,20.46
2023-01-29T02:59:48.354Z,20.24
2023-01-29T03:00:48.339Z,19.79
2023-01-29T03:01:48.295Z,19.99
2023-01-29T03:02:48.258Z,20.06
2023-01-29T03:03:48.199Z,20.11
2023-01-29T03:04:48.177Z,19.81
2023-01-29T03:05:48.168Z,19.32
2023-01-29T03:06:48.122Z,18.66
2023-01-29T03:07:48.094Z,19.13
2023-01-29T03:08:48.031Z,19.28
2023-01-29T03:09:48.017Z,19.50
2023-01-29T03:10:47.970Z,19.02
2023-01-29T03:11:47.924Z,18.72
2023-01-29T03:12:47.887Z,18.27
2023-01-29T03:13:47.868Z,18.29
2023-01-29T03:14:47.818Z,18.02
2023-01-29T03:15:47.798Z,18.11
2023-01-29T03:16:47.842Z,18.37
2023-01-29T03:17:47.715Z,18.14
2023-01-29T03:18:47.679Z,18.17
2023-01-29T03:19:47.651Z,17.39
2023-01-29T03:20:47.613Z,17.74
2023-01-29T03:21:47.612Z,17.61
2023-01-29T03:22:47.521Z,17.93
2023-01-29T03:23:47.516Z,17.97
2023-01-29T03:24:47.481Z,17.69
2023-01-29T03:25:47.448Z,17.20
2023-01-29T03:26:47.393Z,16.98
2023-01-29T03:27:47.392Z,17.26
2023-01-29T03:28:47.364Z,17.24
2023-01-29T03:29:47.327Z,16.99
2023-01-29T03:30:47.310Z,17.46
2023-01-29T03:31:47.300Z,17.22
2023-01-29T03:32:47.219Z,16.88
2023-01-29T03:34:47.173Z,16.81
2023-01-29T03:35:47.136Z,16.58
2023-01-29T03:36:47.112Z,16.67
2023-01-29T03:37:47.081Z,16.90
2023-01-29T03:38:47.059Z,16.59
2023-01-29T03:39:47.040Z,16.77
2023-01-29T03:40:47.012Z,16.42
2023-01-29T03:41:46.970Z,16.22
2023-01-29T03:42:46.934Z,16.57
2023-01-29T03:43:46.926Z,16.44
2023-01-29T03:44:48.918Z,16.65
2023-01-29T03:45:46.885Z,16.57
2023-01-29T03:46:46.807Z,16.35
2023-01-29T03:47:46.757Z,16.44
2023-01-29T03:48:46.710Z,16.16
2023-01-29T04:15:46.883Z,15.97
2023-01-29T04:16:46.921Z,15.85
2023-01-29T04:17:46.927Z,15.71
2023-01-29T04:18:46.966Z,15.75
2023-01-29T04:19:47.006Z,15.34
2023-01-29T04:20:47.045Z,15.41
2023-01-29T04:21:47.072Z,15.36
2023-01-29T04:22:47.101Z,15.32
2023-01-29T04:23:47.135Z,15.54
2023-01-29T04:24:47.174Z,15.46
2023-01-29T04:25:47.246Z,15.58
2023-01-29T04:26:47.257Z,15.59
2023-01-29T04:27:47.319Z,15.65
2023-01-29T04:28:47.334Z,15.64
2023-01-29T04:29:47.413Z,15.23
2023-01-29T04:30:47.478Z,15.35
2023-01-29T04:31:47.419Z,15.54
2023-01-29T04:32:47.461Z,15.60
2023-01-29T04:33:47.480Z,15.52
2023-01-29T04:34:47.486Z,15.49
2023-01-29T04:35:47.520Z,15.36
2023-01-29T04:36:47.574Z,15.24
2023-01-29T04:37:47.569Z,15.28
2023-01-29T04:38:47.609Z,15.27
2023-01-29T04:39:47.609Z,15.30
2023-01-29T04:40:47.647Z,15.42
2023-01-29T04:41:47.703Z,15.33
2023-01-29T04:42:47.712Z,15.41
2023-01-29T04:43:47.729Z,15.10
2023-01-29T04:44:47.751Z,15.13
2023-01-29T04:45:47.795Z,15.11
2023-01-29T04:46:47.852Z,15.09
2023-01-29T04:47:47.880Z,15.30
2023-01-29T04:48:47.889Z,15.25
2023-01-29T04:49:47.926Z,15.10
2023-01-29T04:50:47.968Z,15.18
2023-01-29T04:51:47.983Z,14.95
2023-01-29T04:52:48.790Z,15.11
2023-01-29T04:53:47.975Z,14.99
2023-01-29T04:54:47.914Z,14.96
2023-01-29T04:55:47.885Z,15.04
2023-01-29T04:56:47.906Z,15.16
2023-01-29T04:57:47.863Z,15.18
2023-01-29T04:58:47.814Z,15.21
2023-01-29T04:59:47.776Z,15.00
2023-01-29T05:00:47.827Z,15.02
2023-01-29T05:01:47.901Z,14.91
2023-01-29T05:02:47.935Z,14.81
2023-01-29T05:03:47.913Z,14.91
2023-01-29T05:04:47.921Z,14.99
2023-01-29T05:05:47.984Z,15.14
2023-01-29T05:06:48.030Z,15.03
2023-01-29T05:07:48.055Z,15.01
2023-01-29T05:08:48.063Z,14.76
2023-01-29T05:09:48.145Z,14.79
2023-01-29T05:10:48.161Z,14.75
2023-01-29T05:11:48.169Z,14.83
2023-01-29T05:12:48.216Z,15.01
2023-01-29T05:13:48.273Z,15.03
2023-01-29T05:14:48.295Z,14.99
2023-01-29T05:15:48.357Z,14.95
2023-01-29T05:16:48.353Z,14.83
2023-01-29T05:17:48.370Z,14.68
2023-01-29T05:18:48.407Z,14.66
2023-01-29T05:19:48.470Z,14.78
2023-01-29T05:20:48.471Z,14.86
2023-01-29T05:21:48.528Z,14.84
2023-01-29T05:22:48.556Z,14.78
2023-01-29T05:23:48.602Z,14.72
2023-01-29T05:24:48.584Z,14.74
2023-01-29T05:25:48.601Z,14.69
2023-01-29T05:26:48.656Z,14.63
2023-01-29T05:27:48.591Z,14.58
2023-01-29T05:28:48.548Z,14.75
2023-01-29T05:29:48.533Z,14.73
2023-01-29T05:30:48.471Z,14.74
2023-01-29T05:31:48.869Z,14.86
2023-01-29T05:32:48.408Z,14.84
2023-01-29T05:33:48.350Z,14.73
2023-01-29T05:34:48.312Z,14.77
2023-01-29T05:35:48.327Z,14.51
2023-01-29T05:36:48.275Z,14.47
2023-01-29T05:37:48.228Z,14.62
2023-01-29T05:38:48.200Z,14.77
2023-01-29T05:39:48.181Z,14.63
2023-01-29T05:40:48.157Z,14.67
2023-01-29T05:41:48.134Z,14.75
2023-01-29T05:42:48.131Z,14.61
2023-01-29T05:43:48.073Z,14.53
2023-01-29T05:44:48.037Z,14.40
2023-01-29T05:45:47.999Z,14.39
2023-01-29T05:46:48.008Z,14.56
2023-01-29T05:47:47.925Z,14.66
2023-01-29T05:48:47.895Z,14.57
2023-01-29T05:49:47.869Z,14.63
2023-01-29T05:50:47.838Z,14.66
2023-01-29T05:51:47.804Z,14.42
2023-01-29T05:52:47.803Z,14.43
2023-01-29T05:53:47.757Z,14.49
2023-01-29T05:54:47.716Z,14.40
2023-01-29T05:55:47.721Z,14.55
2023-01-29T05:56:47.696Z,14.63
2023-01-29T05:57:47.652Z,14.62
2023-01-29T05:58:47.657Z,14.58
2023-01-29T05:59:47.596Z,14.53
2023-01-29T06:00:47.589Z,14.53
2023-01-29T06:01:47.547Z,14.32
2023-01-29T06:02:47.549Z,14.28
2023-01-29T06:03:47.516Z,14.38
2023-01-29T06:04:47.456Z,14.52
2023-01-29T06:05:47.422Z,14.45
2023-01-29T06:06:47.380Z,14.41
2023-01-29T06:07:47.386Z,14.54
2023-01-29T06:08:47.813Z,14.46
2023-01-29T06:09:47.302Z,14.39
2023-01-29T06:10:47.265Z,14.39
2023-01-29T06:11:47.227Z,14.22
2023-01-29T06:12:47.223Z,14.34
2023-01-29T06:13:47.201Z,14.43
2023-01-29T06:14:47.142Z,14.43
2023-01-29T06:15:47.210Z,14.38
2023-01-29T06:16:47.095Z,14.36
2023-01-29T06:17:47.056Z,14.28
2023-01-29T06:18:47.028Z,14.28
2023-01-29T06:19:47.002Z,14.16
2023-01-29T06:20:46.967Z,14.08
2023-01-29T06:21:46.961Z,14.18
2023-01-29T06:22:46.919Z,14.37
2023-01-29T06:23:46.924Z,14.43
2023-01-29T06:24:46.882Z,14.33
2023-01-29T06:25:46.865Z,14.33
2023-01-29T06:26:46.843Z,14.39
2023-01-29T06:27:46.799Z,14.23
2023-01-29T06:28:46.807Z,14.20
2023-01-29T06:29:46.756Z,14.10
2023-01-29T06:30:46.761Z,14.16
2023-01-29T06:31:46.878Z,14.31
2023-01-29T06:32:46.674Z,14.31
2023-01-29T06:33:46.644Z,14.29
2023-01-29T06:34:49.587Z,14.24
2023-01-29T06:35:46.590Z,14.33
2023-01-29T06:36:46.547Z,14.08
2023-01-29T06:37:46.558Z,14.14
2023-01-29T06:38:46.535Z,14.08
2023-01-29T06:39:46.474Z,14.09
2023-01-29T06:40:46.456Z,14.28
2023-01-29T06:41:46.447Z,14.25
2023-01-29T06:42:46.391Z,14.29
2023-01-29T06:44:46.332Z,14.16
2023-01-29T06:45:46.314Z,14.09
2023-01-29T06:46:46.469Z,14.15
2023-01-29T06:47:46.225Z,14.00
2023-01-29T06:48:46.222Z,13.99
2023-01-29T06:49:46.172Z,14.20
2023-01-29T06:50:46.129Z,14.27
2023-01-29T06:51:46.131Z,14.20
2023-01-29T06:52:46.093Z,14.27
2023-01-29T06:53:46.829Z,14.11
2023-01-29T06:54:46.022Z,14.20
2023-01-29T06:55:45.997Z,14.08
2023-01-29T06:56:46.001Z,14.03
2023-01-29T06:57:45.967Z,13.96
2023-01-29T07:05:45.711Z,14.01
2023-01-29T07:06:45.679Z,13.88
2023-01-29T07:07:45.671Z,13.87
2023-01-29T07:08:45.629Z,14.01
2023-01-29T07:09:45.585Z,14.05
2023-01-29T07:10:45.549Z,14.05
2023-01-29T07:11:45.509Z,13.96
2023-01-29T07:12:45.500Z,14.00
2023-01-29T07:13:45.504Z,13.88
2023-01-29T07:14:45.464Z,13.96
2023-01-29T07:15:45.409Z,13.81
2023-01-29T09:17:41.897Z,14.39
2023-01-29T09:18:41.904Z,14.43
2023-01-29T09:19:41.838Z,14.47
2023-01-29T09:21:41.798Z,14.48
2023-01-29T09:22:41.739Z,14.50
2023-01-29T09:23:41.718Z,14.52
2023-01-29T09:24:41.669Z,14.53
2023-01-29T09:25:41.659Z,14.56
2023-01-29T09:26:41.674Z,14.60
2023-01-29T09:27:41.628Z,14.62
2023-01-29T09:28:41.575Z,14.65
2023-01-29T09:29:41.513Z,14.68
2023-01-29T09:30:41.571Z,14.68
2023-01-29T09:31:41.585Z,14.71
2023-01-29T09:32:53.335Z,14.72
2023-01-29T09:33:42.390Z,14.74
2023-01-29T09:34:41.374Z,14.75
2023-01-29T09:35:41.362Z,14.79
2023-01-29T09:36:41.298Z,14.79
2023-01-29T09:37:41.263Z,14.83
2023-01-29T09:38:41.225Z,14.82
2023-01-29T09:39:41.196Z,14.86
2023-01-29T09:40:41.159Z,14.88
2023-01-29T09:41:41.111Z,14.90
2023-01-29T09:42:41.084Z,14.92
2023-01-29T09:44:41.017Z,14.96
2023-01-29T09:45:41.073Z,14.97
2023-01-29T09:46:40.949Z,15.00
2023-01-29T09:47:40.911Z,15.02
2023-01-29T09:48:40.884Z,15.03
2023-01-29T09:49:40.849Z,15.05
2023-01-29T09:50:40.815Z,15.06
2023-01-29T09:51:40.781Z,15.06
2023-01-29T09:52:40.741Z,15.09
2023-01-29T09:53:40.685Z,15.10
2023-01-29T09:54:40.708Z,15.10
2023-01-29T09:55:40.619Z,15.13
2023-01-29T09:56:40.595Z,15.13
2023-01-29T09:57:40.549Z,15.15
2023-01-29T09:58:40.554Z,15.15
2023-01-29T09:59:40.490Z,15.18
2023-01-29T10:00:40.468Z,15.24
2023-01-29T10:01:40.499Z,15.21
2023-01-29T10:02:40.393Z,15.26
2023-01-29T10:03:40.376Z,15.26
2023-01-29T10:04:40.375Z,15.28
2023-01-29T10:05:40.289Z,15.29
2023-01-29T10:06:40.243Z,15.32
2023-01-29T10:07:40.198Z,15.35
2023-01-29T10:08:40.203Z,15.36
2023-01-29T10:09:40.139Z,15.39
2023-01-29T10:10:40.106Z,15.41
2023-01-29T10:11:40.100Z,15.44
2023-01-29T10:12:40.029Z,15.43
2023-01-29T10:13:39.994Z,15.46
2023-01-29T10:14:39.987Z,15.49
2023-01-29T10:15:39.950Z,15.51
2023-01-29T10:16:39.984Z,15.51
2023-01-29T10:17:39.879Z,15.54
2023-01-29T10:18:39.823Z,15.56
2023-01-29T10:19:39.794Z,15.59
2023-01-29T10:20:39.770Z,15.58
2023-01-29T10:21:39.729Z,15.59
2023-01-29T10:22:39.736Z,15.63
2023-01-29T10:23:39.666Z,15.63
2023-01-29T10:24:40.406Z,15.67
2023-01-29T10:25:39.557Z,15.70
2023-01-29T10:26:39.590Z,15.70
2023-01-29T10:27:39.490Z,15.73
2023-01-29T10:28:39.460Z,15.75
2023-01-29T10:29:39.415Z,15.76
2023-01-29T10:30:39.395Z,15.77
2023-01-29T10:31:39.453Z,15.81
2023-01-29T10:32:39.305Z,15.82
2023-01-29T10:33:49.172Z,15.85
2023-01-29T10:34:40.207Z,15.87
2023-01-29T10:35:39.181Z,15.89
2023-01-29T10:36:39.156Z,15.89
2023-01-29T10:37:39.079Z,15.90
2023-01-29T10:38:39.086Z,15.89
2023-01-29T10:39:38.995Z,15.92
2023-01-29T10:40:38.956Z,15.93
2023-01-29T10:41:38.928Z,15.97
2023-01-29T10:42:38.890Z,15.97
2023-01-29T10:43:38.853Z,16.01
2023-01-29T10:44:38.820Z,16.03
2023-01-29T10:45:38.825Z,16.04
2023-01-29T10:46:38.748Z,16.06
2023-01-29T10:47:38.732Z,16.09
2023-01-29T10:48:38.663Z,16.09
2023-01-29T10:49:38.606Z,16.10
2023-01-29T10:50:38.575Z,16.10
2023-01-29T10:51:38.531Z,16.12
2023-01-29T10:52:38.520Z,16.15
2023-01-29T10:53:38.444Z,16.17
2023-01-29T10:54:38.395Z,16.20
2023-01-29T10:55:38.361Z,16.20
2023-01-29T10:56:38.328Z,16.21
2023-01-29T10:57:38.277Z,16.23
2023-01-29T10:58:38.940Z,16.26
2023-01-29T10:59:38.197Z,16.29
2023-01-29T11:00:38.145Z,16.29
2023-01-29T11:01:38.145Z,16.30
2023-01-29T11:02:38.112Z,16.28
2023-01-29T11:03:38.060Z,16.32
2023-01-29T11:04:37.982Z,16.33
2023-01-29T11:05:37.946Z,16.34
2023-01-29T11:06:37.915Z,16.38
2023-01-29T11:07:37.866Z,16.39
2023-01-29T11:08:37.820Z,16.40
2023-01-29T11:09:37.792Z,16.39
2023-01-29T11:10:37.717Z,16.45
2023-01-29T11:11:37.700Z,16.40
2023-01-29T11:12:37.656Z,16.45
2023-01-29T11:13:37.583Z,16.45
2023-01-29T11:14:37.539Z,16.48
2023-01-29T11:15:37.509Z,16.50
2023-01-29T11:16:37.513Z,16.51
2023-01-29T11:17:37.423Z,16.55
2023-01-29T11:18:37.353Z,16.56
2023-01-29T11:19:37.326Z,16.58
2023-01-29T11:20:37.262Z,16.61
2023-01-29T11:21:37.235Z,16.62
2023-01-29T11:22:37.193Z,16.61
2023-01-29T11:23:37.158Z,16.62
2023-01-29T11:24:37.090Z,16.66
2023-01-29T11:25:37.058Z,16.65
2023-01-29T11:26:37.082Z,16.68
2023-01-29T11:27:36.964Z,16.67
2023-01-29T11:28:36.926Z,16.72
2023-01-29T11:29:36.870Z,16.73
2023-01-29T11:30:36.834Z,16.75
2023-01-29T11:31:36.891Z,16.76
2023-01-29T11:32:36.725Z,16.81
2023-01-29T11:33:36.658Z,16.79
2023-01-29T11:34:36.628Z,16.81
2023-01-29T11:35:36.615Z,16.81
2023-01-29T11:36:36.539Z,16.80
2023-01-29T11:37:36.505Z,16.81
2023-01-29T11:38:36.460Z,16.82
2023-01-29T11:39:36.394Z,16.84
2023-01-29T11:40:36.374Z,16.86
2023-01-29T11:41:36.321Z,16.88
2023-01-29T11:42:36.289Z,16.89
2023-01-29T11:43:36.246Z,16.91
2023-01-29T11:44:36.192Z,16.92
2023-01-29T11:45:36.178Z,16.92
2023-01-29T11:46:36.117Z,16.95
2023-01-29T11:47:36.295Z,16.95
2023-01-29T11:48:36.030Z,16.95
2023-01-29T11:49:36.020Z,17.00
2023-01-29T11:50:35.979Z,17.00
2023-01-29T11:51:35.906Z,17.04
2023-01-29T11:52:35.864Z,17.00
2023-01-29T11:53:35.837Z,17.06
2023-01-29T11:54:35.772Z,17.08
2023-01-29T11:55:49.751Z,17.09
2023-01-29T11:56:36.697Z,17.11
2023-01-29T11:57:35.647Z,17.09
2023-01-29T11:58:35.633Z,17.12
2023-01-29T11:59:35.566Z,17.10
2023-01-29T12:00:35.536Z,17.13
2023-01-29T12:01:35.489Z,17.12
2023-01-29T12:02:35.456Z,17.16
2023-01-29T12:03:35.420Z,17.18
2023-01-29T12:04:35.350Z,17.19
2023-01-29T12:05:35.333Z,17.18
2023-01-29T12:06:35.259Z,17.21
2023-01-29T12:07:35.208Z,17.21
2023-01-29T12:08:35.186Z,17.21
2023-01-29T12:09:35.114Z,17.23
2023-01-29T12:10:35.081Z,17.24
2023-01-29T12:11:35.044Z,17.25
2023-01-29T12:12:35.018Z,17.24
2023-01-29T12:13:34.965Z,17.27
2023-01-29T12:14:34.908Z,17.28
2023-01-29T12:15:34.864Z,17.29
2023-01-29T12:16:34.866Z,17.29
2023-01-29T12:17:34.788Z,17.29
2023-01-29T12:18:34.727Z,17.31
2023-01-29T12:19:34.746Z,17.34
2023-01-29T12:20:34.664Z,17.33
2023-01-29T12:21:34.617Z,17.37
2023-01-29T12:22:34.547Z,17.35
2023-01-29T12:23:34.516Z,17.35
2023-01-29T12:24:34.469Z,17.36
2023-01-29T12:25:34.424Z,17.37
2023-01-29T12:26:34.399Z,17.36
2023-01-29T12:27:34.313Z,17.37
2023-01-29T12:28:34.293Z,17.38
2023-01-29T12:29:34.222Z,17.39
2023-01-29T12:30:34.206Z,17.39
2023-01-29T12:31:34.208Z,17.41
2023-01-29T12:32:34.115Z,17.41
2023-01-29T12:33:34.475Z,17.42
2023-01-29T12:34:34.050Z,17.43
2023-01-29T12:35:33.974Z,17.44
2023-01-29T12:36:34.471Z,17.44
2023-01-29T12:37:34.446Z,17.46
2023-01-29T12:38:33.938Z,17.47
2023-01-29T12:39:34.002Z,17.48
2023-01-29T12:40:33.744Z,17.49
2023-01-29T12:41:33.681Z,17.48
2023-01-29T12:42:33.637Z,17.48
2023-01-29T12:43:33.565Z,17.49
2023-01-29T12:44:34.458Z,17.50
2023-01-29T12:45:33.465Z,17.51
2023-01-29T12:46:33.465Z,17.50
2023-01-29T12:47:33.381Z,17.50
2023-01-29T12:48:33.392Z,17.51
2023-01-29T12:49:33.294Z,17.53
2023-01-29T12:50:33.256Z,17.52
2023-01-29T12:51:33.195Z,17.53
2023-01-29T12:52:33.136Z,17.54
2023-01-29T12:53:33.113Z,17.54
2023-01-29T12:54:33.068Z,17.54
2023-01-29T12:55:33.017Z,17.55
2023-01-29T12:56:32.964Z,17.55
2023-01-29T12:57:32.902Z,17.54
2023-01-29T12:58:32.876Z,17.55
2023-01-29T12:59:32.815Z,17.56
2023-01-29T13:00:32.788Z,17.54
2023-01-29T13:01:32.725Z,17.57
2023-01-29T13:02:32.660Z,17.56
2023-01-29T13:03:32.681Z,17.54
2023-01-29T13:04:32.576Z,17.55
2023-01-29T13:05:32.518Z,17.56
2023-01-29T13:06:32.484Z,17.57
2023-01-29T13:07:32.580Z,17.58
2023-01-29T13:08:32.398Z,17.58
2023-01-29T13:09:32.499Z,17.59
2023-01-29T13:10:32.300Z,17.59
2023-01-29T13:11:32.248Z,17.60
2023-01-29T13:12:32.209Z,17.57
2023-01-29T13:13:32.167Z,17.57
2023-01-29T13:14:32.126Z,17.58
2023-01-29T13:15:32.081Z,17.60
2023-01-29T13:16:32.081Z,17.60
2023-01-29T13:17:31.946Z,17.59
2023-01-29T13:18:31.892Z,17.59
2023-01-29T13:19:31.856Z,17.59
2023-01-29T13:20:31.824Z,17.60
2023-01-29T13:21:31.758Z,17.62
2023-01-29T13:22:31.712Z,17.61
2023-01-29T13:23:31.668Z,17.61
2023-01-29T13:24:31.602Z,17.63
2023-01-29T13:25:31.540Z,17.62
2023-01-29T13:26:31.533Z,17.63
2023-01-29T13:27:32.015Z,17.64
2023-01-29T13:28:31.403Z,17.64
2023-01-29T13:29:31.495Z,17.64
2023-01-29T13:30:31.336Z,17.64
2023-01-29T13:31:31.285Z,17.67
2023-01-29T13:32:31.269Z,17.64
2023-01-29T13:33:31.151Z,17.67
2023-01-29T13:34:31.119Z,17.67
2023-01-29T13:35:31.079Z,17.65
2023-01-29T13:36:31.004Z,17.65
2023-01-29T13:37:30.943Z,17.65
2023-01-29T13:38:30.897Z,17.68
2023-01-29T13:39:30.849Z,17.67
2023-01-29T13:40:30.779Z,17.69
2023-01-29T13:41:30.730Z,17.70
2023-01-29T13:42:30.665Z,17.69
2023-01-29T13:43:30.636Z,17.70
2023-01-29T13:44:30.593Z,17.71
2023-01-29T13:45:30.530Z,17.70
2023-01-29T13:46:30.479Z,17.71
2023-01-29T13:47:30.444Z,17.71
2023-01-29T13:48:30.394Z,17.74
2023-01-29T13:49:30.379Z,17.72
2023-01-29T13:50:30.298Z,17.72
2023-01-29T13:51:30.260Z,17.74
2023-01-29T13:52:30.216Z,17.73
2023-01-29T13:53:30.153Z,17.73
2023-01-29T13:54:30.118Z,17.74
2023-01-29T13:55:30.088Z,17.78
2023-01-29T13:56:30.048Z,17.77
2023-01-29T13:57:29.970Z,17.77
2023-01-29T13:58:29.904Z,17.79
2023-01-29T13:59:29.876Z,17.78
2023-01-29T14:00:29.820Z,17.81
2023-01-29T14:01:29.862Z,17.80
2023-01-29T14:02:29.842Z,17.81
2023-01-29T14:03:35.900Z,17.83
2023-01-29T14:04:30.630Z,17.81
2023-01-29T14:05:29.606Z,17.84
2023-01-29T14:06:29.521Z,17.82
2023-01-29T14:07:29.487Z,17.84
2023-01-29T14:08:29.424Z,17.87
2023-01-29T14:09:29.411Z,17.86
2023-01-29T14:10:29.350Z,17.86
2023-01-29T14:11:29.314Z,17.88
2023-01-29T14:12:29.252Z,17.89
2023-01-29T14:13:29.226Z,17.87
2023-01-29T14:14:29.157Z,17.90
2023-01-29T14:15:29.120Z,17.91
2023-01-29T14:16:29.094Z,17.93
2023-01-29T14:17:29.033Z,17.92
2023-01-29T14:18:28.948Z,17.95
2023-01-29T14:19:28.897Z,17.95
2023-01-29T14:20:38.225Z,17.92
2023-01-29T14:21:29.821Z,17.95
2023-01-29T14:22:28.761Z,17.97
2023-01-29T14:23:28.712Z,17.97
2023-01-29T14:24:28.674Z,17.98
2023-01-29T14:25:28.619Z,18.00
2023-01-29T14:26:28.583Z,18.02
2023-01-29T14:27:28.524Z,18.03
2023-01-29T14:28:29.008Z,18.00
2023-01-29T14:29:34.772Z,18.03
2023-01-29T14:30:29.380Z,18.07
2023-01-29T14:31:28.405Z,18.07
2023-01-29T14:32:28.257Z,18.08
2023-01-29T14:33:28.234Z,18.09
2023-01-29T14:34:28.159Z,18.08
2023-01-29T14:35:28.137Z,18.11
2023-01-29T14:36:28.069Z,18.13
2023-01-29T14:37:27.997Z,18.15
2023-01-29T14:38:27.947Z,18.15
2023-01-29T14:39:27.920Z,18.17
2023-01-29T14:40:27.860Z,18.18
2023-01-29T14:41:27.797Z,18.19
2023-01-29T14:42:27.768Z,18.21
2023-01-29T14:43:27.702Z,18.22
2023-01-29T14:44:27.651Z,18.22
2023-01-29T14:45:27.588Z,18.24
2023-01-29T14:46:27.628Z,18.22
2023-01-29T14:47:27.501Z,18.24
2023-01-29T14:48:27.432Z,18.25
2023-01-29T14:49:27.400Z,18.28
2023-01-29T14:50:27.364Z,18.31
2023-01-29T14:51:27.294Z,18.30
2023-01-29T14:52:27.252Z,18.32
2023-01-29T14:53:27.188Z,18.29
2023-01-29T14:54:27.122Z,18.31
2023-01-29T14:55:27.083Z,18.35
2023-01-29T14:56:27.027Z,18.36
2023-01-29T14:57:26.992Z,18.36
2023-01-29T14:58:26.916Z,18.36
2023-01-29T14:59:26.886Z,18.36
2023-01-29T15:00:26.829Z,18.39
2023-01-29T15:01:26.915Z,18.41
2023-01-29T15:02:26.824Z,18.42
2023-01-29T15:03:26.707Z,18.46
2023-01-29T15:04:26.683Z,18.44
2023-01-29T15:05:26.660Z,18.42
2023-01-29T15:06:26.593Z,18.46
2023-01-29T15:07:26.559Z,18.50
2023-01-29T15:08:26.496Z,18.51
2023-01-29T15:09:35.951Z,18.51
2023-01-29T15:10:27.449Z,18.55
2023-01-29T15:11:26.364Z,18.55
2023-01-29T15:12:26.305Z,18.57
2023-01-29T15:13:26.258Z,18.58
2023-01-29T15:14:26.227Z,18.58
2023-01-29T15:15:27.451Z,18.60
2023-01-29T15:16:26.131Z,18.56
2023-01-29T15:17:26.087Z,18.60
2023-01-29T15:18:26.037Z,18.56
2023-01-29T15:19:25.978Z,18.61
2023-01-29T15:20:25.926Z,18.62
2023-01-29T15:21:25.865Z,18.61
2023-01-29T15:22:25.840Z,18.63
2023-01-29T15:23:25.833Z,18.65
2023-01-29T15:24:25.734Z,18.65
2023-01-29T15:25:25.689Z,18.66
2023-01-29T15:26:27.189Z,18.70
2023-01-29T15:27:25.601Z,18.72
2023-01-29T15:28:25.552Z,18.71
2023-01-29T15:29:25.507Z,18.72
2023-01-29T15:30:25.473Z,18.76